EWG2AZ EDDS-EDDW
Flight info
| Callsign | EWG2AZ |
|---|---|
| Flight time | 0h 57m |
| Altitude | 31000 |
| Route | OKIBA4B OKIBA N851 RIMKI Z99 LOHRE DCT MASEK DCT ELNAT/N0438F300 P605 NORTA Z595 NIE Z88 VERED VERED3P |
| Aircraft | A320/M-SDE3FGHIRWY/LB1 |
Departure
| Time | 2026-05-07 19:57 |
|---|---|
| Airport | Stuttgart Airport (EDDS) |
Arrival
| Time | 2026-05-07 20:55 |
|---|---|
| Airport | Bremen Airport (EDDW) |
| Time | Latitude | Longitude | Altitude | Speed | Heading |
|---|---|---|---|---|---|
| 2026-05-07 19:18 | 48.68914 | 9.19513 | 1315 ft | 0 kts | 344° |
| 2026-05-07 19:45 | 48.68895 | 9.19521 | 1314 ft | 4 kts | 344° |
| 2026-05-07 19:45 | 48.68870 | 9.19532 | 1312 ft | 2 kts | 344° |
| 2026-05-07 19:45 | 48.68849 | 9.19537 | 1311 ft | 4 kts | 19° |
| 2026-05-07 19:45 | 48.68832 | 9.19514 | 1311 ft | 4 kts | 70° |
| 2026-05-07 19:46 | 48.68827 | 9.19491 | 1312 ft | 1 kts | 74° |
| 2026-05-07 19:48 | 48.68830 | 9.19507 | 1311 ft | 6 kts | 74° |
| 2026-05-07 19:48 | 48.68851 | 9.19615 | 1309 ft | 13 kts | 74° |
| 2026-05-07 19:49 | 48.68878 | 9.19762 | 1306 ft | 16 kts | 74° |
| 2026-05-07 19:49 | 48.68872 | 9.19876 | 1301 ft | 12 kts | 147° |
| 2026-05-07 19:49 | 48.68813 | 9.19960 | 1296 ft | 14 kts | 85° |
| 2026-05-07 19:49 | 48.68853 | 9.20109 | 1293 ft | 17 kts | 74° |
| 2026-05-07 19:50 | 48.68889 | 9.20302 | 1288 ft | 21 kts | 74° |
| 2026-05-07 19:50 | 48.68933 | 9.20538 | 1285 ft | 25 kts | 73° |
| 2026-05-07 19:50 | 48.68986 | 9.20813 | 1275 ft | 29 kts | 74° |
| 2026-05-07 19:50 | 48.69043 | 9.21119 | 1270 ft | 32 kts | 74° |
| 2026-05-07 19:51 | 48.69107 | 9.21449 | 1266 ft | 34 kts | 74° |
| 2026-05-07 19:51 | 48.69173 | 9.21799 | 1254 ft | 35 kts | 74° |
| 2026-05-07 19:51 | 48.69242 | 9.22163 | 1244 ft | 37 kts | 74° |
| 2026-05-07 19:51 | 48.69305 | 9.22496 | 1236 ft | 24 kts | 73° |
| 2026-05-07 19:52 | 48.69354 | 9.22756 | 1231 ft | 27 kts | 74° |
| 2026-05-07 19:52 | 48.69410 | 9.23046 | 1225 ft | 30 kts | 74° |
| 2026-05-07 19:52 | 48.69469 | 9.23360 | 1218 ft | 32 kts | 74° |
| 2026-05-07 19:52 | 48.69532 | 9.23694 | 1211 ft | 34 kts | 73° |
| 2026-05-07 19:53 | 48.69581 | 9.23947 | 1206 ft | 18 kts | 74° |
| 2026-05-07 19:53 | 48.69609 | 9.24140 | 1201 ft | 18 kts | 98° |
| 2026-05-07 19:53 | 48.69554 | 9.24288 | 1193 ft | 15 kts | 137° |
| 2026-05-07 19:53 | 48.69541 | 9.24298 | 1193 ft | 0 kts | 160° |
| 2026-05-07 19:55 | 48.69540 | 9.24299 | 1193 ft | 2 kts | 160° |
| 2026-05-07 19:55 | 48.69497 | 9.24318 | 1190 ft | 9 kts | 165° |
| 2026-05-07 19:55 | 48.69439 | 9.24342 | 1190 ft | 8 kts | 165° |
| 2026-05-07 19:55 | 48.69400 | 9.24349 | 1190 ft | 3 kts | 205° |
| 2026-05-07 19:56 | 48.69393 | 9.24330 | 1191 ft | 2 kts | 248° |
| 2026-05-07 19:56 | 48.69387 | 9.24304 | 1191 ft | 0 kts | 253° |
| 2026-05-07 19:56 | 48.69387 | 9.24303 | 1191 ft | 1 kts | 253° |
| 2026-05-07 19:57 | 48.69342 | 9.24066 | 1196 ft | 60 kts | 254° |
| 2026-05-07 19:57 | 48.69165 | 9.23127 | 1215 ft | 123 kts | 254° |
| 2026-05-07 19:57 | 48.68882 | 9.21634 | 1281 ft | 168 kts | 255° |
| 2026-05-07 19:57 | 48.68563 | 9.19958 | 2009 ft | 164 kts | 255° |
| 2026-05-07 19:58 | 48.68245 | 9.18292 | 2651 ft | 172 kts | 254° |
| 2026-05-07 19:58 | 48.67895 | 9.16466 | 3023 ft | 191 kts | 254° |
| 2026-05-07 19:58 | 48.67497 | 9.14430 | 3331 ft | 213 kts | 253° |
| 2026-05-07 19:58 | 48.67051 | 9.12148 | 3702 ft | 236 kts | 257° |
| 2026-05-07 19:59 | 48.67100 | 9.09652 | 4436 ft | 244 kts | 291° |
| 2026-05-07 19:59 | 48.67993 | 9.07462 | 5311 ft | 247 kts | 311° |
| 2026-05-07 19:59 | 48.69393 | 9.05985 | 6190 ft | 252 kts | 341° |
| 2026-05-07 19:59 | 48.71176 | 9.05414 | 6784 ft | 268 kts | 347° |
| 2026-05-07 20:00 | 48.73011 | 9.04740 | 7571 ft | 275 kts | 343° |
| 2026-05-07 20:00 | 48.74921 | 9.04302 | 8374 ft | 283 kts | 359° |
| 2026-05-07 20:00 | 48.76868 | 9.04866 | 9215 ft | 291 kts | 21° |
| 2026-05-07 20:00 | 48.78568 | 9.06553 | 10056 ft | 297 kts | 45° |
| 2026-05-07 20:01 | 48.79831 | 9.09073 | 10724 ft | 307 kts | 55° |
| 2026-05-07 20:01 | 48.81083 | 9.11853 | 10992 ft | 331 kts | 55° |
| 2026-05-07 20:01 | 48.82432 | 9.14828 | 11322 ft | 350 kts | 55° |
| 2026-05-07 20:01 | 48.83836 | 9.17894 | 11980 ft | 356 kts | 54° |
| 2026-05-07 20:02 | 48.85248 | 9.20956 | 12715 ft | 360 kts | 54° |
| 2026-05-07 20:02 | 48.86698 | 9.24080 | 13452 ft | 364 kts | 54° |
| 2026-05-07 20:02 | 48.88218 | 9.27239 | 14152 ft | 368 kts | 49° |
| 2026-05-07 20:02 | 48.90071 | 9.29927 | 14773 ft | 370 kts | 36° |
| 2026-05-07 20:03 | 48.92284 | 9.31941 | 15396 ft | 373 kts | 22° |
| 2026-05-07 20:03 | 48.94715 | 9.33157 | 16031 ft | 373 kts | 9° |
| 2026-05-07 20:03 | 48.96454 | 9.33506 | 16454 ft | 374 kts | 0° |
| 2026-05-07 20:03 | 48.99055 | 9.33405 | 17071 ft | 376 kts | 354° |
| 2026-05-07 20:04 | 49.01682 | 9.33191 | 17699 ft | 379 kts | 354° |
| 2026-05-07 20:04 | 49.04327 | 9.32978 | 18313 ft | 383 kts | 354° |
| 2026-05-07 20:04 | 49.06998 | 9.32763 | 18847 ft | 386 kts | 354° |
| 2026-05-07 20:04 | 49.09695 | 9.32547 | 19394 ft | 389 kts | 354° |
| 2026-05-07 20:05 | 49.12408 | 9.32331 | 19938 ft | 391 kts | 354° |
| 2026-05-07 20:05 | 49.15139 | 9.32114 | 20487 ft | 394 kts | 354° |
| 2026-05-07 20:05 | 49.17876 | 9.31897 | 21052 ft | 395 kts | 355° |
| 2026-05-07 20:05 | 49.20633 | 9.31678 | 21585 ft | 398 kts | 355° |
| 2026-05-07 20:06 | 49.23404 | 9.31458 | 22101 ft | 400 kts | 355° |
| 2026-05-07 20:06 | 49.26197 | 9.31240 | 22598 ft | 403 kts | 355° |
| 2026-05-07 20:06 | 49.29002 | 9.31023 | 23104 ft | 405 kts | 355° |
| 2026-05-07 20:06 | 49.31828 | 9.30804 | 23597 ft | 408 kts | 355° |
| 2026-05-07 20:07 | 49.34673 | 9.30597 | 24016 ft | 411 kts | 357° |
| 2026-05-07 20:07 | 49.37497 | 9.30828 | 24424 ft | 414 kts | 4° |
| 2026-05-07 20:07 | 49.40373 | 9.31263 | 24841 ft | 416 kts | 4° |
| 2026-05-07 20:07 | 49.43262 | 9.31695 | 25246 ft | 418 kts | 3° |
| 2026-05-07 20:08 | 49.46164 | 9.32125 | 25641 ft | 420 kts | 3° |
| 2026-05-07 20:08 | 49.49084 | 9.32561 | 26036 ft | 422 kts | 3° |
| 2026-05-07 20:08 | 49.52013 | 9.32996 | 26426 ft | 424 kts | 3° |
| 2026-05-07 20:08 | 49.54962 | 9.33427 | 26810 ft | 426 kts | 3° |
| 2026-05-07 20:09 | 49.57919 | 9.33859 | 27185 ft | 428 kts | 3° |
| 2026-05-07 20:09 | 49.60890 | 9.34297 | 27567 ft | 430 kts | 3° |
| 2026-05-07 20:09 | 49.63877 | 9.34739 | 27945 ft | 432 kts | 3° |
| 2026-05-07 20:10 | 49.69878 | 9.35639 | 28672 ft | 435 kts | 3° |
| 2026-05-07 20:10 | 49.72901 | 9.36093 | 29004 ft | 437 kts | 3° |
| 2026-05-07 20:10 | 49.75925 | 9.36780 | 29319 ft | 441 kts | 11° |
| 2026-05-07 20:10 | 49.78912 | 9.37911 | 29633 ft | 443 kts | 12° |
| 2026-05-07 20:11 | 49.81916 | 9.39064 | 29958 ft | 445 kts | 12° |
| 2026-05-07 20:11 | 49.84888 | 9.40206 | 30254 ft | 446 kts | 12° |
| 2026-05-07 20:11 | 49.87906 | 9.41367 | 30517 ft | 448 kts | 12° |
| 2026-05-07 20:11 | 49.90934 | 9.42535 | 30835 ft | 448 kts | 12° |
| 2026-05-07 20:12 | 49.93961 | 9.43703 | 31040 ft | 448 kts | 12° |
| 2026-05-07 20:12 | 49.99894 | 9.46005 | 31081 ft | 435 kts | 12° |
| 2026-05-07 20:13 | 50.05753 | 9.48268 | 31081 ft | 433 kts | 11° |
| 2026-05-07 20:13 | 50.11700 | 9.49468 | 31081 ft | 431 kts | 4° |
| 2026-05-07 20:14 | 50.17661 | 9.50458 | 31086 ft | 431 kts | 4° |
| 2026-05-07 20:14 | 50.23622 | 9.51466 | 31087 ft | 431 kts | 4° |
| 2026-05-07 20:15 | 50.29548 | 9.52460 | 31088 ft | 430 kts | 4° |
| 2026-05-07 20:15 | 50.35509 | 9.53472 | 31088 ft | 430 kts | 4° |
| 2026-05-07 20:16 | 50.41462 | 9.54480 | 31082 ft | 430 kts | 4° |
| 2026-05-07 20:16 | 50.47417 | 9.55481 | 31084 ft | 430 kts | 4° |
| 2026-05-07 20:17 | 50.53377 | 9.56490 | 31094 ft | 431 kts | 5° |
| 2026-05-07 20:17 | 50.59340 | 9.57503 | 31092 ft | 431 kts | 5° |
| 2026-05-07 20:18 | 50.65301 | 9.58522 | 31091 ft | 431 kts | 5° |
| 2026-05-07 20:18 | 50.71256 | 9.59544 | 31094 ft | 431 kts | 5° |
| 2026-05-07 20:19 | 50.77220 | 9.60605 | 31098 ft | 431 kts | 5° |
| 2026-05-07 20:19 | 50.83134 | 9.61775 | 31097 ft | 431 kts | 6° |
| 2026-05-07 20:20 | 50.89085 | 9.62974 | 31097 ft | 431 kts | 6° |
| 2026-05-07 20:20 | 50.95043 | 9.64142 | 31103 ft | 431 kts | 5° |
| 2026-05-07 20:21 | 51.00996 | 9.65297 | 31097 ft | 431 kts | 6° |
| 2026-05-07 20:21 | 51.06953 | 9.66455 | 31098 ft | 431 kts | 5° |
| 2026-05-07 20:22 | 51.12915 | 9.67612 | 31091 ft | 431 kts | 5° |
| 2026-05-07 20:22 | 51.18880 | 9.68781 | 31104 ft | 431 kts | 6° |
| 2026-05-07 20:23 | 51.24849 | 9.69795 | 31097 ft | 430 kts | 358° |
| 2026-05-07 20:23 | 51.27797 | 9.69208 | 31101 ft | 428 kts | 343° |
| 2026-05-07 20:23 | 51.30517 | 9.67486 | 31095 ft | 426 kts | 334° |
| 2026-05-07 20:24 | 51.35868 | 9.63407 | 31093 ft | 427 kts | 333° |
| 2026-05-07 20:24 | 51.41220 | 9.59283 | 31089 ft | 427 kts | 333° |
| 2026-05-07 20:25 | 51.46587 | 9.55162 | 31086 ft | 428 kts | 333° |
| 2026-05-07 20:25 | 51.51968 | 9.51038 | 31088 ft | 429 kts | 333° |
| 2026-05-07 20:26 | 51.57335 | 9.46903 | 30294 ft | 428 kts | 333° |
| 2026-05-07 20:26 | 51.60021 | 9.44819 | 29538 ft | 427 kts | 333° |
| 2026-05-07 20:26 | 51.62685 | 9.42752 | 28905 ft | 423 kts | 333° |
| 2026-05-07 20:26 | 51.65322 | 9.40711 | 28279 ft | 419 kts | 333° |
| 2026-05-07 20:27 | 51.67940 | 9.38685 | 27676 ft | 416 kts | 333° |
| 2026-05-07 20:27 | 51.70537 | 9.36675 | 27055 ft | 413 kts | 333° |
| 2026-05-07 20:27 | 51.73119 | 9.34675 | 26455 ft | 409 kts | 333° |
| 2026-05-07 20:27 | 51.75677 | 9.32687 | 25867 ft | 406 kts | 333° |
| 2026-05-07 20:28 | 51.78208 | 9.30716 | 25334 ft | 403 kts | 333° |
| 2026-05-07 20:28 | 51.80728 | 9.28751 | 24813 ft | 400 kts | 333° |
| 2026-05-07 20:28 | 51.83233 | 9.26797 | 24249 ft | 398 kts | 332° |
| 2026-05-07 20:28 | 51.85717 | 9.24856 | 23702 ft | 395 kts | 332° |
| 2026-05-07 20:29 | 51.88181 | 9.22930 | 23082 ft | 392 kts | 332° |
| 2026-05-07 20:29 | 51.90595 | 9.21034 | 22531 ft | 389 kts | 332° |
| 2026-05-07 20:29 | 51.93024 | 9.19121 | 21984 ft | 386 kts | 332° |
| 2026-05-07 20:29 | 51.95430 | 9.17224 | 21446 ft | 382 kts | 332° |
| 2026-05-07 20:30 | 51.97813 | 9.15346 | 20922 ft | 379 kts | 332° |
| 2026-05-07 20:30 | 52.00180 | 9.13486 | 20421 ft | 377 kts | 333° |
| 2026-05-07 20:30 | 52.02528 | 9.11642 | 19943 ft | 374 kts | 333° |
| 2026-05-07 20:30 | 52.04860 | 9.09803 | 19449 ft | 371 kts | 333° |
| 2026-05-07 20:31 | 52.07173 | 9.07975 | 18982 ft | 368 kts | 333° |
| 2026-05-07 20:31 | 52.09472 | 9.06152 | 18543 ft | 366 kts | 332° |
| 2026-05-07 20:31 | 52.11755 | 9.04339 | 18047 ft | 363 kts | 333° |
| 2026-05-07 20:31 | 52.14017 | 9.02545 | 17547 ft | 361 kts | 333° |
| 2026-05-07 20:32 | 52.16269 | 9.00758 | 17069 ft | 358 kts | 333° |
| 2026-05-07 20:32 | 52.18501 | 8.98987 | 16600 ft | 356 kts | 333° |
| 2026-05-07 20:32 | 52.20719 | 8.97223 | 16122 ft | 354 kts | 333° |
| 2026-05-07 20:32 | 52.22928 | 8.95464 | 15666 ft | 352 kts | 333° |
| 2026-05-07 20:33 | 52.25088 | 8.93738 | 15216 ft | 349 kts | 333° |
| 2026-05-07 20:33 | 52.27261 | 8.92001 | 14786 ft | 347 kts | 333° |
| 2026-05-07 20:33 | 52.29422 | 8.90269 | 14336 ft | 345 kts | 333° |
| 2026-05-07 20:33 | 52.31573 | 8.88547 | 13899 ft | 343 kts | 333° |
| 2026-05-07 20:34 | 52.33706 | 8.86841 | 13420 ft | 341 kts | 333° |
| 2026-05-07 20:34 | 52.35825 | 8.85140 | 12951 ft | 338 kts | 333° |
| 2026-05-07 20:34 | 52.37927 | 8.83449 | 12482 ft | 336 kts | 333° |
| 2026-05-07 20:34 | 52.40015 | 8.81771 | 12013 ft | 333 kts | 333° |
| 2026-05-07 20:35 | 52.42090 | 8.80108 | 11543 ft | 331 kts | 333° |
| 2026-05-07 20:35 | 52.44148 | 8.78453 | 11092 ft | 328 kts | 334° |
| 2026-05-07 20:35 | 52.46195 | 8.76802 | 10595 ft | 327 kts | 334° |
| 2026-05-07 20:35 | 52.48229 | 8.75162 | 10159 ft | 325 kts | 334° |
| 2026-05-07 20:36 | 52.50234 | 8.73544 | 9956 ft | 315 kts | 334° |
| 2026-05-07 20:36 | 52.52161 | 8.71986 | 9755 ft | 305 kts | 334° |
| 2026-05-07 20:36 | 52.54034 | 8.70472 | 9600 ft | 294 kts | 334° |
| 2026-05-07 20:36 | 52.55840 | 8.69009 | 9381 ft | 286 kts | 334° |
| 2026-05-07 20:37 | 52.57618 | 8.67565 | 9025 ft | 284 kts | 334° |
| 2026-05-07 20:37 | 52.59383 | 8.66128 | 8649 ft | 282 kts | 334° |
| 2026-05-07 20:37 | 52.61136 | 8.64699 | 8401 ft | 281 kts | 334° |
| 2026-05-07 20:37 | 52.62894 | 8.63266 | 8209 ft | 281 kts | 335° |
| 2026-05-07 20:38 | 52.64647 | 8.61840 | 8000 ft | 281 kts | 335° |
| 2026-05-07 20:38 | 52.66397 | 8.60416 | 7797 ft | 280 kts | 335° |
| 2026-05-07 20:38 | 52.68141 | 8.58997 | 7594 ft | 279 kts | 335° |
| 2026-05-07 20:38 | 52.69880 | 8.57582 | 7390 ft | 278 kts | 335° |
| 2026-05-07 20:39 | 52.71613 | 8.56171 | 7212 ft | 278 kts | 335° |
| 2026-05-07 20:39 | 52.73345 | 8.54757 | 7028 ft | 278 kts | 335° |
| 2026-05-07 20:39 | 52.75075 | 8.53342 | 6859 ft | 277 kts | 335° |
| 2026-05-07 20:39 | 52.76801 | 8.51926 | 6683 ft | 277 kts | 336° |
| 2026-05-07 20:40 | 52.78499 | 8.50532 | 6509 ft | 276 kts | 336° |
| 2026-05-07 20:40 | 52.80222 | 8.49119 | 6325 ft | 275 kts | 336° |
| 2026-05-07 20:40 | 52.81937 | 8.47709 | 6142 ft | 275 kts | 336° |
| 2026-05-07 20:40 | 52.83643 | 8.46308 | 5958 ft | 274 kts | 336° |
| 2026-05-07 20:41 | 52.85346 | 8.44909 | 5780 ft | 273 kts | 336° |
| 2026-05-07 20:41 | 52.87042 | 8.43516 | 5591 ft | 272 kts | 336° |
| 2026-05-07 20:41 | 52.88733 | 8.42123 | 5411 ft | 271 kts | 336° |
| 2026-05-07 20:41 | 52.90416 | 8.40734 | 5231 ft | 270 kts | 336° |
| 2026-05-07 20:42 | 52.92097 | 8.39351 | 5039 ft | 269 kts | 336° |
| 2026-05-07 20:42 | 52.93774 | 8.37972 | 4870 ft | 268 kts | 336° |
| 2026-05-07 20:42 | 52.95444 | 8.36592 | 4689 ft | 268 kts | 336° |
| 2026-05-07 20:42 | 52.97106 | 8.35214 | 4485 ft | 267 kts | 335° |
| 2026-05-07 20:43 | 52.98765 | 8.33836 | 4320 ft | 266 kts | 335° |
| 2026-05-07 20:43 | 53.00418 | 8.32463 | 4137 ft | 266 kts | 335° |
| 2026-05-07 20:43 | 53.02066 | 8.31092 | 4206 ft | 265 kts | 335° |
| 2026-05-07 20:43 | 53.03667 | 8.29781 | 4299 ft | 246 kts | 340° |
| 2026-05-07 20:44 | 53.05253 | 8.29301 | 4326 ft | 223 kts | 7° |
| 2026-05-07 20:44 | 53.06713 | 8.29924 | 4331 ft | 216 kts | 30° |
| 2026-05-07 20:44 | 53.07887 | 8.31421 | 4329 ft | 212 kts | 52° |
| 2026-05-07 20:44 | 53.08616 | 8.33521 | 4329 ft | 210 kts | 73° |
| 2026-05-07 20:45 | 53.08818 | 8.35914 | 4332 ft | 210 kts | 94° |
| 2026-05-07 20:45 | 53.08458 | 8.38262 | 4334 ft | 212 kts | 115° |
| 2026-05-07 20:45 | 53.07576 | 8.40227 | 4334 ft | 215 kts | 137° |
| 2026-05-07 20:45 | 53.06298 | 8.41518 | 4338 ft | 218 kts | 153° |
| 2026-05-07 20:46 | 53.04916 | 8.42572 | 4336 ft | 218 kts | 152° |
| 2026-05-07 20:46 | 53.03559 | 8.43623 | 4337 ft | 218 kts | 152° |
| 2026-05-07 20:46 | 53.02185 | 8.44695 | 4343 ft | 218 kts | 152° |
| 2026-05-07 20:46 | 53.00810 | 8.45769 | 4341 ft | 218 kts | 152° |
| 2026-05-07 20:47 | 52.99390 | 8.46656 | 4338 ft | 220 kts | 167° |
| 2026-05-07 20:47 | 52.97852 | 8.46673 | 4340 ft | 224 kts | 190° |
| 2026-05-07 20:47 | 52.96420 | 8.45645 | 4340 ft | 227 kts | 215° |
| 2026-05-07 20:47 | 52.95360 | 8.43708 | 4334 ft | 230 kts | 240° |
| 2026-05-07 20:48 | 52.94876 | 8.41178 | 4232 ft | 231 kts | 268° |
| 2026-05-07 20:48 | 52.95129 | 8.38636 | 4176 ft | 221 kts | 296° |
| 2026-05-07 20:48 | 52.96026 | 8.36627 | 4107 ft | 216 kts | 324° |
| 2026-05-07 20:48 | 52.97338 | 8.35520 | 4069 ft | 211 kts | 351° |
| 2026-05-07 20:49 | 52.98779 | 8.35479 | 4022 ft | 206 kts | 16° |
| 2026-05-07 20:49 | 53.00061 | 8.36438 | 3976 ft | 202 kts | 40° |
| 2026-05-07 20:49 | 53.00971 | 8.38171 | 3904 ft | 200 kts | 64° |
| 2026-05-07 20:49 | 53.01474 | 8.40279 | 3777 ft | 199 kts | 71° |
| 2026-05-07 20:50 | 53.01945 | 8.42440 | 3634 ft | 199 kts | 71° |
| 2026-05-07 20:50 | 53.02263 | 8.43893 | 3550 ft | 198 kts | 71° |
| 2026-05-07 20:50 | 53.02890 | 8.46738 | 3351 ft | 197 kts | 71° |
| 2026-05-07 20:50 | 53.03356 | 8.48846 | 3209 ft | 191 kts | 71° |
| 2026-05-07 20:51 | 53.03799 | 8.50848 | 3123 ft | 178 kts | 71° |
| 2026-05-07 20:51 | 53.04035 | 8.52794 | 2952 ft | 168 kts | 86° |
| 2026-05-07 20:51 | 53.04102 | 8.54712 | 2746 ft | 164 kts | 88° |
| 2026-05-07 20:51 | 53.04138 | 8.55979 | 2603 ft | 162 kts | 88° |
| 2026-05-07 20:52 | 53.04186 | 8.57834 | 2382 ft | 160 kts | 88° |
| 2026-05-07 20:52 | 53.04229 | 8.59651 | 2208 ft | 153 kts | 88° |
| 2026-05-07 20:52 | 53.04270 | 8.61375 | 1955 ft | 147 kts | 88° |
| 2026-05-07 20:52 | 53.04313 | 8.62997 | 1820 ft | 139 kts | 89° |
| 2026-05-07 20:53 | 53.04355 | 8.64586 | 1653 ft | 136 kts | 89° |
| 2026-05-07 20:53 | 53.04395 | 8.66162 | 1416 ft | 137 kts | 90° |
| 2026-05-07 20:53 | 53.04432 | 8.67707 | 1226 ft | 134 kts | 89° |
| 2026-05-07 20:53 | 53.04477 | 8.69257 | 1036 ft | 135 kts | 89° |
| 2026-05-07 20:54 | 53.04511 | 8.70827 | 850 ft | 138 kts | 90° |
| 2026-05-07 20:54 | 53.04549 | 8.72435 | 665 ft | 140 kts | 90° |
| 2026-05-07 20:54 | 53.04587 | 8.74084 | 441 ft | 142 kts | 90° |
| 2026-05-07 20:54 | 53.04620 | 8.75716 | 254 ft | 140 kts | 90° |
| 2026-05-07 20:55 | 53.04655 | 8.77323 | 65 ft | 138 kts | 90° |
| 2026-05-07 20:55 | 53.04686 | 8.78809 | 20 ft | 107 kts | 87° |
| 2026-05-07 20:55 | 53.04706 | 8.79561 | 20 ft | 36 kts | 88° |
| 2026-05-07 20:55 | 53.04713 | 8.79867 | 20 ft | 16 kts | 82° |
| 2026-05-07 20:56 | 53.04791 | 8.79974 | 20 ft | 15 kts | 5° |
| 2026-05-07 20:56 | 53.04867 | 8.79902 | 19 ft | 12 kts | 297° |
| 2026-05-07 20:56 | 53.04875 | 8.79771 | 19 ft | 11 kts | 269° |
| 2026-05-07 20:56 | 53.04874 | 8.79655 | 20 ft | 9 kts | 266° |
| 2026-05-07 20:57 | 53.04870 | 8.79553 | 19 ft | 10 kts | 267° |
| 2026-05-07 20:57 | 53.04867 | 8.79399 | 19 ft | 15 kts | 268° |
| 2026-05-07 20:57 | 53.04863 | 8.79225 | 19 ft | 16 kts | 268° |
| 2026-05-07 20:57 | 53.04859 | 8.79033 | 19 ft | 18 kts | 268° |
| 2026-05-07 20:58 | 53.04853 | 8.78820 | 19 ft | 18 kts | 268° |
| 2026-05-07 20:58 | 53.04872 | 8.78676 | 19 ft | 12 kts | 320° |
| 2026-05-07 20:58 | 53.04950 | 8.78654 | 19 ft | 11 kts | 359° |
| 2026-05-07 20:58 | 53.05011 | 8.78607 | 19 ft | 9 kts | 320° |
| 2026-05-07 20:59 | 53.05057 | 8.78541 | 19 ft | 8 kts | 319° |
| 2026-05-07 20:59 | 53.05094 | 8.78504 | 19 ft | 4 kts | 3° |
| 2026-05-07 20:59 | 53.05114 | 8.78533 | 19 ft | 4 kts | 47° |
| 2026-05-07 20:59 | 53.05129 | 8.78561 | 19 ft | 3 kts | 49° |
| 2026-05-07 21:00 | 53.05141 | 8.78583 | 19 ft | 1 kts | 49° |